sensor_id;sensor_type;location;lat;lon;timestamp;P1;durP1;ratioP1;P2;durP2;ratioP2
14100;SDS011;7127;49.372;8.166;2022-10-22T00:02:25;0.70;;;0.50;;
14100;SDS011;7127;49.372;8.166;2022-10-22T00:04:53;0.97;;;0.50;;
14100;SDS011;7127;49.372;8.166;2022-10-22T00:07:21;1.13;;;0.43;;
14100;SDS011;7127;49.372;8.166;2022-10-22T00:09:50;2.13;;;0.40;;
14100;SDS011;7127;49.372;8.166;2022-10-22T00:12:18;0.50;;;0.50;;
14100;SDS011;7127;49.372;8.166;2022-10-22T00:14:45;0.47;;;0.30;;
14100;SDS011;7127;49.372;8.166;2022-10-22T00:17:13;0.20;;;0.20;;
14100;SDS011;7127;49.372;8.166;2022-10-22T00:19:41;0.60;;;0.40;;
14100;SDS011;7127;49.372;8.166;2022-10-22T00:22:08;0.53;;;0.20;;
14100;SDS011;7127;49.372;8.166;2022-10-22T00:24:37;1.17;;;0.50;;
14100;SDS011;7127;49.372;8.166;2022-10-22T00:27:08;0.57;;;0.40;;
14100;SDS011;7127;49.372;8.166;2022-10-22T00:29:36;0.50;;;0.40;;
14100;SDS011;7127;49.372;8.166;2022-10-22T00:32:04;0.87;;;0.50;;
14100;SDS011;7127;49.372;8.166;2022-10-22T00:34:32;0.30;;;0.23;;
14100;SDS011;7127;49.372;8.166;2022-10-22T00:37:00;0.83;;;0.43;;
14100;SDS011;7127;49.372;8.166;2022-10-22T00:39:27;0.70;;;0.37;;
14100;SDS011;7127;49.372;8.166;2022-10-22T00:41:55;0.77;;;0.50;;
14100;SDS011;7127;49.372;8.166;2022-10-22T00:47:30;0.50;;;0.47;;
14100;SDS011;7127;49.372;8.166;2022-10-22T00:49:59;1.07;;;0.50;;
14100;SDS011;7127;49.372;8.166;2022-10-22T00:52:28;0.60;;;0.60;;
14100;SDS011;7127;49.372;8.166;2022-10-22T00:54:56;0.40;;;0.40;;
14100;SDS011;7127;49.372;8.166;2022-10-22T00:57:23;0.37;;;0.30;;
14100;SDS011;7127;49.372;8.166;2022-10-22T00:59:51;0.70;;;0.50;;
14100;SDS011;7127;49.372;8.166;2022-10-22T01:02:21;1.23;;;0.30;;
14100;SDS011;7127;49.372;8.166;2022-10-22T01:04:49;0.83;;;0.37;;
14100;SDS011;7127;49.372;8.166;2022-10-22T01:07:16;0.60;;;0.50;;
14100;SDS011;7127;49.372;8.166;2022-10-22T01:09:49;1.03;;;0.40;;
14100;SDS011;7127;49.372;8.166;2022-10-22T01:12:27;0.77;;;0.50;;
14100;SDS011;7127;49.372;8.166;2022-10-22T01:15:08;0.40;;;0.30;;
14100;SDS011;7127;49.372;8.166;2022-10-22T01:17:41;0.90;;;0.40;;
14100;SDS011;7127;49.372;8.166;2022-10-22T01:20:22;0.60;;;0.30;;
14100;SDS011;7127;49.372;8.166;2022-10-22T01:23:25;0.40;;;0.40;;
14100;SDS011;7127;49.372;8.166;2022-10-22T01:26:16;0.93;;;0.40;;
14100;SDS011;7127;49.372;8.166;2022-10-22T01:28:59;1.60;;;0.40;;
14100;SDS011;7127;49.372;8.166;2022-10-22T01:31:33;0.43;;;0.30;;
14100;SDS011;7127;49.372;8.166;2022-10-22T01:34:05;0.90;;;0.33;;
14100;SDS011;7127;49.372;8.166;2022-10-22T01:36:35;0.40;;;0.40;;
14100;SDS011;7127;49.372;8.166;2022-10-22T01:39:04;0.40;;;0.30;;
14100;SDS011;7127;49.372;8.166;2022-10-22T01:41:32;0.40;;;0.40;;
14100;SDS011;7127;49.372;8.166;2022-10-22T01:44:02;0.27;;;0.27;;
14100;SDS011;7127;49.372;8.166;2022-10-22T01:46:29;1.13;;;0.33;;
14100;SDS011;7127;49.372;8.166;2022-10-22T01:49:01;0.30;;;0.30;;
14100;SDS011;7127;49.372;8.166;2022-10-22T01:51:45;0.40;;;0.20;;
14100;SDS011;7127;49.372;8.166;2022-10-22T01:54:24;0.20;;;0.20;;
14100;SDS011;7127;49.372;8.166;2022-10-22T01:57:03;0.30;;;0.20;;
14100;SDS011;7127;49.372;8.166;2022-10-22T01:59:40;0.40;;;0.37;;
14100;SDS011;7127;49.372;8.166;2022-10-22T02:02:18;0.70;;;0.40;;
14100;SDS011;7127;49.372;8.166;2022-10-22T02:04:54;0.33;;;0.20;;
14100;SDS011;7127;49.372;8.166;2022-10-22T02:07:24;0.27;;;0.27;;
14100;SDS011;7127;49.372;8.166;2022-10-22T02:09:56;0.60;;;0.40;;
14100;SDS011;7127;49.372;8.166;2022-10-22T02:12:25;0.40;;;0.30;;
14100;SDS011;7127;49.372;8.166;2022-10-22T02:14:55;0.60;;;0.33;;
14100;SDS011;7127;49.372;8.166;2022-10-22T02:17:24;0.47;;;0.30;;
14100;SDS011;7127;49.372;8.166;2022-10-22T02:19:55;1.13;;;0.30;;
14100;SDS011;7127;49.372;8.166;2022-10-22T02:22:26;3.07;;;0.50;;
14100;SDS011;7127;49.372;8.166;2022-10-22T02:24:54;0.93;;;0.40;;
14100;SDS011;7127;49.372;8.166;2022-10-22T02:27:23;0.40;;;0.33;;
14100;SDS011;7127;49.372;8.166;2022-10-22T02:29:57;2.93;;;0.37;;
14100;SDS011;7127;49.372;8.166;2022-10-22T02:32:29;0.83;;;0.27;;
14100;SDS011;7127;49.372;8.166;2022-10-22T02:34:59;0.87;;;0.30;;
14100;SDS011;7127;49.372;8.166;2022-10-22T02:37:28;0.10;;;0.10;;
14100;SDS011;7127;49.372;8.166;2022-10-22T02:39:56;0.20;;;0.10;;
14100;SDS011;7127;49.372;8.166;2022-10-22T02:42:24;1.23;;;0.10;;
14100;SDS011;7127;49.372;8.166;2022-10-22T02:44:53;0.60;;;0.37;;
14100;SDS011;7127;49.372;8.166;2022-10-22T02:47:22;0.60;;;0.30;;
14100;SDS011;7127;49.372;8.166;2022-10-22T02:49:50;0.40;;;0.13;;
14100;SDS011;7127;49.372;8.166;2022-10-22T02:52:17;0.43;;;0.13;;
14100;SDS011;7127;49.372;8.166;2022-10-22T02:54:44;0.47;;;0.40;;
14100;SDS011;7127;49.372;8.166;2022-10-22T02:57:12;0.20;;;0.10;;
14100;SDS011;7127;49.372;8.166;2022-10-22T02:59:39;0.10;;;0.10;;
14100;SDS011;7127;49.372;8.166;2022-10-22T03:02:08;1.23;;;0.20;;
14100;SDS011;7127;49.372;8.166;2022-10-22T03:04:35;0.30;;;0.30;;
14100;SDS011;7127;49.372;8.166;2022-10-22T03:07:03;0.50;;;0.50;;
14100;SDS011;7127;49.372;8.166;2022-10-22T03:09:30;0.20;;;0.20;;
14100;SDS011;7127;49.372;8.166;2022-10-22T03:11:57;0.27;;;0.27;;
14100;SDS011;7127;49.372;8.166;2022-10-22T03:14:25;0.70;;;0.40;;
14100;SDS011;7127;49.372;8.166;2022-10-22T03:16:52;0.87;;;0.50;;
14100;SDS011;7127;49.372;8.166;2022-10-22T03:19:21;0.27;;;0.20;;
14100;SDS011;7127;49.372;8.166;2022-10-22T03:21:51;0.30;;;0.30;;
14100;SDS011;7127;49.372;8.166;2022-10-22T03:24:20;0.13;;;0.10;;
14100;SDS011;7127;49.372;8.166;2022-10-22T03:26:51;0.20;;;0.10;;
14100;SDS011;7127;49.372;8.166;2022-10-22T03:29:18;0.50;;;0.23;;
14100;SDS011;7127;49.372;8.166;2022-10-22T03:31:47;0.30;;;0.30;;
14100;SDS011;7127;49.372;8.166;2022-10-22T03:34:15;1.60;;;1.17;;
14100;SDS011;7127;49.372;8.166;2022-10-22T03:36:44;1.03;;;0.60;;
14100;SDS011;7127;49.372;8.166;2022-10-22T03:39:12;0.30;;;0.30;;
14100;SDS011;7127;49.372;8.166;2022-10-22T03:41:41;0.20;;;0.20;;
14100;SDS011;7127;49.372;8.166;2022-10-22T03:44:09;1.20;;;0.40;;
14100;SDS011;7127;49.372;8.166;2022-10-22T03:46:37;0.20;;;0.20;;
14100;SDS011;7127;49.372;8.166;2022-10-22T03:49:05;0.07;;;0.07;;
14100;SDS011;7127;49.372;8.166;2022-10-22T03:51:32;0.30;;;0.23;;
14100;SDS011;7127;49.372;8.166;2022-10-22T03:54:01;0.37;;;0.10;;
14100;SDS011;7127;49.372;8.166;2022-10-22T03:56:29;0.10;;;0.10;;
14100;SDS011;7127;49.372;8.166;2022-10-22T03:58:56;0.07;;;0.07;;
14100;SDS011;7127;49.372;8.166;2022-10-22T04:01:25;0.10;;;0.10;;
14100;SDS011;7127;49.372;8.166;2022-10-22T04:03:53;0.30;;;0.20;;
14100;SDS011;7127;49.372;8.166;2022-10-22T04:06:21;0.10;;;0.10;;
14100;SDS011;7127;49.372;8.166;2022-10-22T04:08:49;0.20;;;0.20;;
14100;SDS011;7127;49.372;8.166;2022-10-22T04:11:18;1.90;;;0.27;;
14100;SDS011;7127;49.372;8.166;2022-10-22T04:13:45;0.20;;;0.13;;
14100;SDS011;7127;49.372;8.166;2022-10-22T04:16:13;0.30;;;0.10;;
14100;SDS011;7127;49.372;8.166;2022-10-22T04:18:42;0.53;;;0.10;;
14100;SDS011;7127;49.372;8.166;2022-10-22T04:21:12;0.30;;;0.20;;
14100;SDS011;7127;49.372;8.166;2022-10-22T04:23:43;0.30;;;0.20;;
14100;SDS011;7127;49.372;8.166;2022-10-22T04:26:11;0.33;;;0.20;;
14100;SDS011;7127;49.372;8.166;2022-10-22T04:28:40;0.10;;;0.10;;
14100;SDS011;7127;49.372;8.166;2022-10-22T04:31:08;0.33;;;0.10;;
14100;SDS011;7127;49.372;8.166;2022-10-22T04:33:37;0.57;;;0.10;;
14100;SDS011;7127;49.372;8.166;2022-10-22T04:36:05;0.03;;;0.03;;
14100;SDS011;7127;49.372;8.166;2022-10-22T04:38:33;0.20;;;0.20;;
14100;SDS011;7127;49.372;8.166;2022-10-22T04:41:14;0.10;;;0.10;;
14100;SDS011;7127;49.372;8.166;2022-10-22T04:46:45;2.10;;;0.20;;
14100;SDS011;7127;49.372;8.166;2022-10-22T04:49:12;0.10;;;0.10;;
14100;SDS011;7127;49.372;8.166;2022-10-22T04:51:39;0.10;;;0.10;;
14100;SDS011;7127;49.372;8.166;2022-10-22T04:54:06;0.00;;;0.00;;
14100;SDS011;7127;49.372;8.166;2022-10-22T04:56:34;0.43;;;0.13;;
14100;SDS011;7127;49.372;8.166;2022-10-22T04:59:03;0.10;;;0.10;;
14100;SDS011;7127;49.372;8.166;2022-10-22T05:01:34;0.13;;;0.13;;
14100;SDS011;7127;49.372;8.166;2022-10-22T05:04:02;3.03;;;0.10;;
14100;SDS011;7127;49.372;8.166;2022-10-22T05:06:32;0.00;;;0.00;;
14100;SDS011;7127;49.372;8.166;2022-10-22T05:09:02;0.00;;;0.00;;
14100;SDS011;7127;49.372;8.166;2022-10-22T05:11:31;0.60;;;0.10;;
14100;SDS011;7127;49.372;8.166;2022-10-22T05:14:00;1.43;;;0.20;;
14100;SDS011;7127;49.372;8.166;2022-10-22T05:16:29;0.40;;;0.20;;
14100;SDS011;7127;49.372;8.166;2022-10-22T05:18:58;0.13;;;0.13;;
14100;SDS011;7127;49.372;8.166;2022-10-22T05:21:26;0.17;;;0.10;;
14100;SDS011;7127;49.372;8.166;2022-10-22T05:23:54;1.50;;;0.17;;
14100;SDS011;7127;49.372;8.166;2022-10-22T05:26:24;0.20;;;0.10;;
14100;SDS011;7127;49.372;8.166;2022-10-22T05:28:51;0.10;;;0.10;;
14100;SDS011;7127;49.372;8.166;2022-10-22T05:31:19;0.43;;;0.20;;
14100;SDS011;7127;49.372;8.166;2022-10-22T05:33:47;0.73;;;0.30;;
14100;SDS011;7127;49.372;8.166;2022-10-22T05:36:18;0.27;;;0.10;;
14100;SDS011;7127;49.372;8.166;2022-10-22T05:38:47;0.20;;;0.20;;
14100;SDS011;7127;49.372;8.166;2022-10-22T05:41:15;0.37;;;0.23;;
14100;SDS011;7127;49.372;8.166;2022-10-22T05:43:44;0.87;;;0.20;;
14100;SDS011;7127;49.372;8.166;2022-10-22T05:46:13;0.93;;;0.20;;
14100;SDS011;7127;49.372;8.166;2022-10-22T05:48:41;0.10;;;0.10;;
14100;SDS011;7127;49.372;8.166;2022-10-22T05:51:09;0.50;;;0.20;;
14100;SDS011;7127;49.372;8.166;2022-10-22T05:53:40;0.37;;;0.20;;
14100;SDS011;7127;49.372;8.166;2022-10-22T05:56:10;2.50;;;0.40;;
14100;SDS011;7127;49.372;8.166;2022-10-22T05:58:38;0.30;;;0.30;;
14100;SDS011;7127;49.372;8.166;2022-10-22T06:01:07;0.47;;;0.37;;
14100;SDS011;7127;49.372;8.166;2022-10-22T06:03:37;0.50;;;0.30;;
14100;SDS011;7127;49.372;8.166;2022-10-22T06:06:08;0.60;;;0.33;;
14100;SDS011;7127;49.372;8.166;2022-10-22T06:08:44;0.67;;;0.30;;
14100;SDS011;7127;49.372;8.166;2022-10-22T06:11:12;0.23;;;0.23;;
14100;SDS011;7127;49.372;8.166;2022-10-22T06:19:00;0.37;;;0.20;;
14100;SDS011;7127;49.372;8.166;2022-10-22T06:21:29;0.37;;;0.10;;
14100;SDS011;7127;49.372;8.166;2022-10-22T06:27:18;0.30;;;0.10;;
14100;SDS011;7127;49.372;8.166;2022-10-22T06:29:46;0.63;;;0.20;;
14100;SDS011;7127;49.372;8.166;2022-10-22T06:32:14;0.23;;;0.23;;
14100;SDS011;7127;49.372;8.166;2022-10-22T06:34:52;0.30;;;0.30;;
14100;SDS011;7127;49.372;8.166;2022-10-22T06:37:20;0.40;;;0.30;;
14100;SDS011;7127;49.372;8.166;2022-10-22T06:39:49;0.40;;;0.37;;
14100;SDS011;7127;49.372;8.166;2022-10-22T06:42:21;0.33;;;0.10;;
14100;SDS011;7127;49.372;8.166;2022-10-22T06:44:50;0.37;;;0.20;;
14100;SDS011;7127;49.372;8.166;2022-10-22T07:08:19;1.03;;;0.30;;
14100;SDS011;7127;49.372;8.166;2022-10-22T07:11:04;1.47;;;0.10;;
14100;SDS011;7127;49.372;8.166;2022-10-22T07:16:09;0.37;;;0.23;;
14100;SDS011;7127;49.372;8.166;2022-10-22T07:18:37;0.70;;;0.23;;
14100;SDS011;7127;49.372;8.166;2022-10-22T07:26:18;0.00;;;0.00;;
14100;SDS011;7127;49.372;8.166;2022-10-22T07:28:45;0.50;;;0.40;;
14100;SDS011;7127;49.372;8.166;2022-10-22T07:31:13;0.70;;;0.30;;
14100;SDS011;7127;49.372;8.166;2022-10-22T07:33:50;1.47;;;0.10;;
14100;SDS011;7127;49.372;8.166;2022-10-22T07:36:17;0.63;;;0.20;;
14100;SDS011;7127;49.372;8.166;2022-10-22T07:38:45;0.47;;;0.37;;
14100;SDS011;7127;49.372;8.166;2022-10-22T07:41:13;0.20;;;0.17;;
14100;SDS011;7127;49.372;8.166;2022-10-22T07:43:45;0.33;;;0.33;;
14100;SDS011;7127;49.372;8.166;2022-10-22T07:46:12;0.10;;;0.10;;
14100;SDS011;7127;49.372;8.166;2022-10-22T07:48:39;0.07;;;0.07;;
14100;SDS011;7127;49.372;8.166;2022-10-22T07:51:07;0.67;;;0.40;;
14100;SDS011;7127;49.372;8.166;2022-10-22T07:53:34;0.47;;;0.37;;
14100;SDS011;7127;49.372;8.166;2022-10-22T07:56:02;1.10;;;0.70;;
14100;SDS011;7127;49.372;8.166;2022-10-22T07:58:29;1.10;;;0.80;;
14100;SDS011;7127;49.372;8.166;2022-10-22T08:00:58;1.03;;;0.60;;
14100;SDS011;7127;49.372;8.166;2022-10-22T08:03:27;1.30;;;0.63;;
14100;SDS011;7127;49.372;8.166;2022-10-22T08:05:55;1.70;;;0.80;;
14100;SDS011;7127;49.372;8.166;2022-10-22T08:08:22;1.30;;;0.40;;
14100;SDS011;7127;49.372;8.166;2022-10-22T08:10:51;0.93;;;0.43;;
14100;SDS011;7127;49.372;8.166;2022-10-22T08:13:18;0.97;;;0.40;;
14100;SDS011;7127;49.372;8.166;2022-10-22T08:15:46;0.97;;;0.40;;
14100;SDS011;7127;49.372;8.166;2022-10-22T08:18:15;0.77;;;0.40;;
14100;SDS011;7127;49.372;8.166;2022-10-22T08:20:43;0.40;;;0.37;;
14100;SDS011;7127;49.372;8.166;2022-10-22T08:26:02;0.30;;;0.30;;
14100;SDS011;7127;49.372;8.166;2022-10-22T08:28:30;0.40;;;0.33;;
14100;SDS011;7127;49.372;8.166;2022-10-22T08:31:01;0.30;;;0.30;;
14100;SDS011;7127;49.372;8.166;2022-10-22T08:33:30;0.40;;;0.40;;
14100;SDS011;7127;49.372;8.166;2022-10-22T08:35:57;0.43;;;0.30;;
14100;SDS011;7127;49.372;8.166;2022-10-22T08:38:24;0.50;;;0.40;;
14100;SDS011;7127;49.372;8.166;2022-10-22T08:40:53;0.57;;;0.33;;
14100;SDS011;7127;49.372;8.166;2022-10-22T08:43:33;0.50;;;0.50;;
14100;SDS011;7127;49.372;8.166;2022-10-22T08:46:43;2.73;;;0.40;;
14100;SDS011;7127;49.372;8.166;2022-10-22T08:49:22;1.90;;;0.50;;
14100;SDS011;7127;49.372;8.166;2022-10-22T08:51:51;2.93;;;0.50;;
14100;SDS011;7127;49.372;8.166;2022-10-22T08:54:24;0.60;;;0.30;;
14100;SDS011;7127;49.372;8.166;2022-10-22T08:57:05;0.40;;;0.40;;
14100;SDS011;7127;49.372;8.166;2022-10-22T09:02:22;0.83;;;0.53;;
14100;SDS011;7127;49.372;8.166;2022-10-22T09:05:10;0.30;;;0.30;;
14100;SDS011;7127;49.372;8.166;2022-10-22T09:07:53;0.30;;;0.30;;
14100;SDS011;7127;49.372;8.166;2022-10-22T09:15:32;0.43;;;0.43;;
14100;SDS011;7127;49.372;8.166;2022-10-22T09:18:14;0.60;;;0.60;;
14100;SDS011;7127;49.372;8.166;2022-10-22T09:21:15;0.67;;;0.43;;
14100;SDS011;7127;49.372;8.166;2022-10-22T09:24:04;0.30;;;0.30;;
14100;SDS011;7127;49.372;8.166;2022-10-22T09:26:37;0.70;;;0.57;;
14100;SDS011;7127;49.372;8.166;2022-10-22T09:29:06;0.63;;;0.50;;
14100;SDS011;7127;49.372;8.166;2022-10-22T09:31:42;0.87;;;0.70;;
14100;SDS011;7127;49.372;8.166;2022-10-22T09:34:12;2.47;;;0.80;;
14100;SDS011;7127;49.372;8.166;2022-10-22T09:36:41;2.57;;;0.90;;
14100;SDS011;7127;49.372;8.166;2022-10-22T09:39:21;1.87;;;0.63;;
14100;SDS011;7127;49.372;8.166;2022-10-22T09:41:50;1.20;;;0.80;;
14100;SDS011;7127;49.372;8.166;2022-10-22T09:44:17;3.13;;;0.80;;
14100;SDS011;7127;49.372;8.166;2022-10-22T09:46:44;3.67;;;1.10;;
14100;SDS011;7127;49.372;8.166;2022-10-22T09:49:12;3.50;;;1.10;;
14100;SDS011;7127;49.372;8.166;2022-10-22T09:51:48;0.93;;;0.60;;
14100;SDS011;7127;49.372;8.166;2022-10-22T09:54:17;1.57;;;0.60;;
14100;SDS011;7127;49.372;8.166;2022-10-22T09:56:49;1.07;;;0.60;;
14100;SDS011;7127;49.372;8.166;2022-10-22T09:59:25;0.93;;;0.50;;
14100;SDS011;7127;49.372;8.166;2022-10-22T10:01:55;0.57;;;0.50;;
14100;SDS011;7127;49.372;8.166;2022-10-22T10:04:26;0.60;;;0.30;;
14100;SDS011;7127;49.372;8.166;2022-10-22T10:06:55;0.53;;;0.37;;
14100;SDS011;7127;49.372;8.166;2022-10-22T10:09:23;1.47;;;0.47;;
14100;SDS011;7127;49.372;8.166;2022-10-22T10:11:56;0.87;;;0.70;;
14100;SDS011;7127;49.372;8.166;2022-10-22T10:14:32;0.70;;;0.43;;
14100;SDS011;7127;49.372;8.166;2022-10-22T10:17:07;1.43;;;0.53;;
14100;SDS011;7127;49.372;8.166;2022-10-22T10:19:47;1.07;;;0.40;;
14100;SDS011;7127;49.372;8.166;2022-10-22T10:22:29;1.07;;;0.40;;
14100;SDS011;7127;49.372;8.166;2022-10-22T10:25:22;0.30;;;0.30;;
14100;SDS011;7127;49.372;8.166;2022-10-22T10:28:00;1.50;;;0.50;;
14100;SDS011;7127;49.372;8.166;2022-10-22T10:30:32;1.37;;;0.80;;
14100;SDS011;7127;49.372;8.166;2022-10-22T10:33:10;0.83;;;0.50;;
14100;SDS011;7127;49.372;8.166;2022-10-22T10:35:48;2.13;;;0.67;;
14100;SDS011;7127;49.372;8.166;2022-10-22T10:38:29;1.40;;;0.80;;
14100;SDS011;7127;49.372;8.166;2022-10-22T10:41:12;0.70;;;0.40;;
14100;SDS011;7127;49.372;8.166;2022-10-22T10:43:49;0.50;;;0.40;;
14100;SDS011;7127;49.372;8.166;2022-10-22T10:46:27;0.50;;;0.40;;
14100;SDS011;7127;49.372;8.166;2022-10-22T10:49:02;2.93;;;0.47;;
14100;SDS011;7127;49.372;8.166;2022-10-22T10:51:41;1.83;;;0.50;;
14100;SDS011;7127;49.372;8.166;2022-10-22T10:54:20;0.93;;;0.50;;
14100;SDS011;7127;49.372;8.166;2022-10-22T10:56:55;2.80;;;0.90;;
14100;SDS011;7127;49.372;8.166;2022-10-22T10:59:34;1.73;;;0.90;;
14100;SDS011;7127;49.372;8.166;2022-10-22T11:02:13;1.70;;;0.70;;
14100;SDS011;7127;49.372;8.166;2022-10-22T11:05:06;1.50;;;0.80;;
14100;SDS011;7127;49.372;8.166;2022-10-22T11:07:46;1.30;;;0.50;;
14100;SDS011;7127;49.372;8.166;2022-10-22T11:10:21;0.93;;;0.57;;
14100;SDS011;7127;49.372;8.166;2022-10-22T11:12:55;1.63;;;0.77;;
14100;SDS011;7127;49.372;8.166;2022-10-22T11:15:28;1.67;;;0.67;;
14100;SDS011;7127;49.372;8.166;2022-10-22T11:17:59;0.60;;;0.40;;
14100;SDS011;7127;49.372;8.166;2022-10-22T11:20:34;2.83;;;0.50;;
14100;SDS011;7127;49.372;8.166;2022-10-22T11:23:10;0.63;;;0.50;;
14100;SDS011;7127;49.372;8.166;2022-10-22T11:25:43;1.93;;;0.83;;
14100;SDS011;7127;49.372;8.166;2022-10-22T11:28:13;1.30;;;0.43;;
14100;SDS011;7127;49.372;8.166;2022-10-22T11:30:44;3.20;;;0.70;;
14100;SDS011;7127;49.372;8.166;2022-10-22T11:33:14;0.80;;;0.50;;
14100;SDS011;7127;49.372;8.166;2022-10-22T11:35:44;2.07;;;0.60;;
14100;SDS011;7127;49.372;8.166;2022-10-22T11:38:13;2.00;;;0.97;;
14100;SDS011;7127;49.372;8.166;2022-10-22T11:40:49;1.00;;;0.60;;
14100;SDS011;7127;49.372;8.166;2022-10-22T11:43:26;1.53;;;0.60;;
14100;SDS011;7127;49.372;8.166;2022-10-22T11:45:56;0.50;;;0.30;;
14100;SDS011;7127;49.372;8.166;2022-10-22T11:48:27;1.73;;;0.90;;
14100;SDS011;7127;49.372;8.166;2022-10-22T11:51:02;1.03;;;0.70;;
14100;SDS011;7127;49.372;8.166;2022-10-22T11:53:54;1.90;;;0.47;;
14100;SDS011;7127;49.372;8.166;2022-10-22T11:56:24;0.63;;;0.40;;
14100;SDS011;7127;49.372;8.166;2022-10-22T11:58:52;1.27;;;0.70;;
14100;SDS011;7127;49.372;8.166;2022-10-22T12:01:25;1.80;;;0.67;;
14100;SDS011;7127;49.372;8.166;2022-10-22T12:06:52;2.27;;;0.50;;
14100;SDS011;7127;49.372;8.166;2022-10-22T12:09:25;2.20;;;0.67;;
14100;SDS011;7127;49.372;8.166;2022-10-22T12:12:02;0.30;;;0.30;;
14100;SDS011;7127;49.372;8.166;2022-10-22T12:14:37;1.70;;;0.70;;
14100;SDS011;7127;49.372;8.166;2022-10-22T12:17:16;1.47;;;0.50;;
14100;SDS011;7127;49.372;8.166;2022-10-22T12:19:45;1.40;;;0.60;;
14100;SDS011;7127;49.372;8.166;2022-10-22T12:22:14;1.23;;;0.63;;
14100;SDS011;7127;49.372;8.166;2022-10-22T12:24:45;1.50;;;0.53;;
14100;SDS011;7127;49.372;8.166;2022-10-22T12:27:17;1.33;;;0.60;;
14100;SDS011;7127;49.372;8.166;2022-10-22T12:29:46;1.80;;;0.60;;
14100;SDS011;7127;49.372;8.166;2022-10-22T12:32:14;0.93;;;0.57;;
14100;SDS011;7127;49.372;8.166;2022-10-22T12:34:45;2.20;;;0.80;;
14100;SDS011;7127;49.372;8.166;2022-10-22T12:37:13;1.00;;;0.60;;
14100;SDS011;7127;49.372;8.166;2022-10-22T12:39:41;0.50;;;0.40;;
14100;SDS011;7127;49.372;8.166;2022-10-22T12:42:11;1.47;;;0.70;;
14100;SDS011;7127;49.372;8.166;2022-10-22T12:44:41;0.67;;;0.50;;
14100;SDS011;7127;49.372;8.166;2022-10-22T12:47:10;2.47;;;0.80;;
14100;SDS011;7127;49.372;8.166;2022-10-22T12:49:42;1.90;;;0.63;;
14100;SDS011;7127;49.372;8.166;2022-10-22T12:52:12;0.67;;;0.50;;
14100;SDS011;7127;49.372;8.166;2022-10-22T12:54:43;3.37;;;0.60;;
14100;SDS011;7127;49.372;8.166;2022-10-22T12:57:12;0.90;;;0.30;;
14100;SDS011;7127;49.372;8.166;2022-10-22T12:59:42;1.73;;;0.63;;
14100;SDS011;7127;49.372;8.166;2022-10-22T13:02:15;0.63;;;0.40;;
14100;SDS011;7127;49.372;8.166;2022-10-22T13:05:06;0.47;;;0.43;;
14100;SDS011;7127;49.372;8.166;2022-10-22T13:07:43;2.63;;;0.70;;
14100;SDS011;7127;49.372;8.166;2022-10-22T13:10:14;0.90;;;0.60;;
14100;SDS011;7127;49.372;8.166;2022-10-22T13:12:48;0.73;;;0.40;;
14100;SDS011;7127;49.372;8.166;2022-10-22T13:15:19;2.57;;;0.80;;
14100;SDS011;7127;49.372;8.166;2022-10-22T13:18:00;0.80;;;0.47;;
14100;SDS011;7127;49.372;8.166;2022-10-22T13:20:28;0.97;;;0.50;;
14100;SDS011;7127;49.372;8.166;2022-10-22T13:22:57;1.00;;;0.57;;
14100;SDS011;7127;49.372;8.166;2022-10-22T13:25:27;1.17;;;0.53;;
14100;SDS011;7127;49.372;8.166;2022-10-22T13:27:56;1.87;;;0.50;;
14100;SDS011;7127;49.372;8.166;2022-10-22T13:30:27;1.80;;;0.53;;
14100;SDS011;7127;49.372;8.166;2022-10-22T13:32:57;0.93;;;0.30;;
14100;SDS011;7127;49.372;8.166;2022-10-22T13:35:26;2.47;;;0.47;;
14100;SDS011;7127;49.372;8.166;2022-10-22T13:37:56;1.07;;;0.50;;
14100;SDS011;7127;49.372;8.166;2022-10-22T13:40:23;1.27;;;0.50;;
14100;SDS011;7127;49.372;8.166;2022-10-22T13:42:50;1.00;;;0.50;;
14100;SDS011;7127;49.372;8.166;2022-10-22T13:45:17;1.13;;;0.53;;
14100;SDS011;7127;49.372;8.166;2022-10-22T13:47:47;1.00;;;0.50;;
14100;SDS011;7127;49.372;8.166;2022-10-22T13:50:17;1.00;;;0.50;;
14100;SDS011;7127;49.372;8.166;2022-10-22T13:52:46;0.87;;;0.33;;
14100;SDS011;7127;49.372;8.166;2022-10-22T13:55:16;0.73;;;0.57;;
14100;SDS011;7127;49.372;8.166;2022-10-22T13:57:46;1.17;;;0.50;;
14100;SDS011;7127;49.372;8.166;2022-10-22T14:00:15;0.73;;;0.40;;
14100;SDS011;7127;49.372;8.166;2022-10-22T14:02:43;1.17;;;0.50;;
14100;SDS011;7127;49.372;8.166;2022-10-22T14:05:15;1.00;;;0.50;;
14100;SDS011;7127;49.372;8.166;2022-10-22T14:07:43;1.67;;;0.63;;
14100;SDS011;7127;49.372;8.166;2022-10-22T14:10:15;2.20;;;0.60;;
14100;SDS011;7127;49.372;8.166;2022-10-22T14:12:43;0.83;;;0.50;;
14100;SDS011;7127;49.372;8.166;2022-10-22T14:15:11;0.83;;;0.30;;
14100;SDS011;7127;49.372;8.166;2022-10-22T14:17:40;2.00;;;0.80;;
14100;SDS011;7127;49.372;8.166;2022-10-22T14:20:13;2.27;;;0.60;;
14100;SDS011;7127;49.372;8.166;2022-10-22T14:22:43;2.27;;;0.80;;
14100;SDS011;7127;49.372;8.166;2022-10-22T14:25:13;0.63;;;0.40;;
14100;SDS011;7127;49.372;8.166;2022-10-22T14:27:41;0.83;;;0.50;;
14100;SDS011;7127;49.372;8.166;2022-10-22T14:30:08;1.30;;;0.63;;
14100;SDS011;7127;49.372;8.166;2022-10-22T14:32:39;1.37;;;0.80;;
14100;SDS011;7127;49.372;8.166;2022-10-22T14:35:08;0.37;;;0.37;;
14100;SDS011;7127;49.372;8.166;2022-10-22T14:37:39;2.23;;;0.63;;
14100;SDS011;7127;49.372;8.166;2022-10-22T14:40:07;1.60;;;0.70;;
14100;SDS011;7127;49.372;8.166;2022-10-22T14:42:38;1.83;;;0.70;;
14100;SDS011;7127;49.372;8.166;2022-10-22T14:45:09;0.53;;;0.50;;
14100;SDS011;7127;49.372;8.166;2022-10-22T14:47:40;1.20;;;0.57;;
14100;SDS011;7127;49.372;8.166;2022-10-22T14:50:08;0.97;;;0.63;;
14100;SDS011;7127;49.372;8.166;2022-10-22T14:52:35;1.50;;;0.77;;
14100;SDS011;7127;49.372;8.166;2022-10-22T14:55:04;0.90;;;0.70;;
14100;SDS011;7127;49.372;8.166;2022-10-22T14:57:32;0.50;;;0.50;;
14100;SDS011;7127;49.372;8.166;2022-10-22T14:59:59;3.03;;;0.90;;
14100;SDS011;7127;49.372;8.166;2022-10-22T15:02:26;2.50;;;0.60;;
14100;SDS011;7127;49.372;8.166;2022-10-22T15:04:54;0.50;;;0.50;;
14100;SDS011;7127;49.372;8.166;2022-10-22T15:07:21;0.50;;;0.50;;
14100;SDS011;7127;49.372;8.166;2022-10-22T15:09:48;1.80;;;0.83;;
14100;SDS011;7127;49.372;8.166;2022-10-22T15:12:17;0.53;;;0.50;;
14100;SDS011;7127;49.372;8.166;2022-10-22T15:14:45;0.80;;;0.50;;
14100;SDS011;7127;49.372;8.166;2022-10-22T15:17:12;0.83;;;0.70;;
14100;SDS011;7127;49.372;8.166;2022-10-22T15:19:39;0.90;;;0.60;;
14100;SDS011;7127;49.372;8.166;2022-10-22T15:22:07;0.70;;;0.60;;
14100;SDS011;7127;49.372;8.166;2022-10-22T15:24:34;0.67;;;0.43;;
14100;SDS011;7127;49.372;8.166;2022-10-22T15:27:02;1.03;;;0.50;;
14100;SDS011;7127;49.372;8.166;2022-10-22T15:29:31;0.50;;;0.40;;
14100;SDS011;7127;49.372;8.166;2022-10-22T15:31:58;1.00;;;0.57;;
14100;SDS011;7127;49.372;8.166;2022-10-22T15:34:27;3.30;;;0.50;;
14100;SDS011;7127;49.372;8.166;2022-10-22T15:36:55;0.80;;;0.60;;
14100;SDS011;7127;49.372;8.166;2022-10-22T15:39:24;1.77;;;0.80;;
14100;SDS011;7127;49.372;8.166;2022-10-22T15:41:52;1.60;;;0.80;;
14100;SDS011;7127;49.372;8.166;2022-10-22T15:44:21;1.10;;;0.80;;
14100;SDS011;7127;49.372;8.166;2022-10-22T15:46:51;0.73;;;0.70;;
14100;SDS011;7127;49.372;8.166;2022-10-22T15:49:19;1.13;;;0.70;;
14100;SDS011;7127;49.372;8.166;2022-10-22T15:51:46;1.10;;;0.70;;
14100;SDS011;7127;49.372;8.166;2022-10-22T15:54:15;1.03;;;0.53;;
14100;SDS011;7127;49.372;8.166;2022-10-22T15:56:43;1.70;;;0.70;;
14100;SDS011;7127;49.372;8.166;2022-10-22T15:59:11;0.77;;;0.57;;
14100;SDS011;7127;49.372;8.166;2022-10-22T16:01:39;1.53;;;0.83;;
14100;SDS011;7127;49.372;8.166;2022-10-22T16:04:08;1.00;;;0.80;;
14100;SDS011;7127;49.372;8.166;2022-10-22T16:06:37;1.23;;;0.90;;
14100;SDS011;7127;49.372;8.166;2022-10-22T16:09:07;1.57;;;1.00;;
14100;SDS011;7127;49.372;8.166;2022-10-22T16:11:36;1.83;;;1.10;;
14100;SDS011;7127;49.372;8.166;2022-10-22T16:14:04;1.43;;;0.80;;
14100;SDS011;7127;49.372;8.166;2022-10-22T16:16:33;1.00;;;0.90;;
14100;SDS011;7127;49.372;8.166;2022-10-22T16:19:01;1.50;;;1.00;;
14100;SDS011;7127;49.372;8.166;2022-10-22T16:21:29;1.90;;;1.20;;